sensor_id;sensor_type;location;lat;lon;timestamp;P1;durP1;ratioP1;P2;durP2;ratioP2
22843;SDS011;11588;51.178;4.852;2024-01-15T00:01:12;12.60;;;5.00;;
22843;SDS011;11588;51.178;4.852;2024-01-15T00:03:38;11.70;;;4.55;;
22843;SDS011;11588;51.178;4.852;2024-01-15T00:06:05;12.57;;;4.47;;
22843;SDS011;11588;51.178;4.852;2024-01-15T00:08:31;7.57;;;3.30;;
22843;SDS011;11588;51.178;4.852;2024-01-15T00:10:58;6.47;;;2.33;;
22843;SDS011;11588;51.178;4.852;2024-01-15T00:13:24;5.97;;;1.77;;
22843;SDS011;11588;51.178;4.852;2024-01-15T00:15:50;3.08;;;1.00;;
22843;SDS011;11588;51.178;4.852;2024-01-15T00:18:17;4.80;;;0.80;;
22843;SDS011;11588;51.178;4.852;2024-01-15T00:20:43;3.60;;;0.68;;
22843;SDS011;11588;51.178;4.852;2024-01-15T00:23:10;2.75;;;0.65;;
22843;SDS011;11588;51.178;4.852;2024-01-15T00:25:36;1.15;;;0.50;;
22843;SDS011;11588;51.178;4.852;2024-01-15T00:28:03;4.40;;;0.40;;
22843;SDS011;11588;51.178;4.852;2024-01-15T00:30:29;2.72;;;0.60;;
22843;SDS011;11588;51.178;4.852;2024-01-15T00:32:55;2.58;;;0.50;;
22843;SDS011;11588;51.178;4.852;2024-01-15T00:35:22;1.27;;;0.30;;
22843;SDS011;11588;51.178;4.852;2024-01-15T00:37:48;1.42;;;0.35;;
22843;SDS011;11588;51.178;4.852;2024-01-15T00:40:15;3.08;;;0.40;;
22843;SDS011;11588;51.178;4.852;2024-01-15T00:42:41;1.38;;;0.32;;
22843;SDS011;11588;51.178;4.852;2024-01-15T00:45:09;0.70;;;0.40;;
22843;SDS011;11588;51.178;4.852;2024-01-15T00:47:35;1.13;;;0.50;;
22843;SDS011;11588;51.178;4.852;2024-01-15T00:50:02;1.58;;;0.45;;
22843;SDS011;11588;51.178;4.852;2024-01-15T00:52:29;5.97;;;0.50;;
22843;SDS011;11588;51.178;4.852;2024-01-15T00:54:56;2.22;;;0.45;;
22843;SDS011;11588;51.178;4.852;2024-01-15T00:57:23;4.47;;;0.63;;
22843;SDS011;11588;51.178;4.852;2024-01-15T00:59:49;3.92;;;0.70;;
22843;SDS011;11588;51.178;4.852;2024-01-15T01:02:16;4.15;;;0.80;;
22843;SDS011;11588;51.178;4.852;2024-01-15T01:04:42;2.88;;;0.50;;
22843;SDS011;11588;51.178;4.852;2024-01-15T01:07:08;2.95;;;0.60;;
22843;SDS011;11588;51.178;4.852;2024-01-15T01:09:35;1.52;;;0.43;;
22843;SDS011;11588;51.178;4.852;2024-01-15T01:12:02;5.80;;;0.70;;
22843;SDS011;11588;51.178;4.852;2024-01-15T01:14:29;6.53;;;1.17;;
22843;SDS011;11588;51.178;4.852;2024-01-15T01:16:56;5.60;;;0.98;;
22843;SDS011;11588;51.178;4.852;2024-01-15T01:19:22;4.95;;;0.63;;
22843;SDS011;11588;51.178;4.852;2024-01-15T01:21:49;1.92;;;0.60;;
22843;SDS011;11588;51.178;4.852;2024-01-15T01:24:17;6.10;;;0.80;;
22843;SDS011;11588;51.178;4.852;2024-01-15T01:26:43;6.20;;;1.10;;
22843;SDS011;11588;51.178;4.852;2024-01-15T01:29:12;4.50;;;0.60;;
22843;SDS011;11588;51.178;4.852;2024-01-15T01:31:42;6.47;;;1.13;;
22843;SDS011;11588;51.178;4.852;2024-01-15T01:34:10;5.95;;;0.70;;
22843;SDS011;11588;51.178;4.852;2024-01-15T01:36:37;8.10;;;1.08;;
22843;SDS011;11588;51.178;4.852;2024-01-15T01:39:03;8.30;;;0.70;;
22843;SDS011;11588;51.178;4.852;2024-01-15T01:41:30;4.15;;;0.70;;
22843;SDS011;11588;51.178;4.852;2024-01-15T01:43:56;6.13;;;0.70;;
22843;SDS011;11588;51.178;4.852;2024-01-15T01:46:23;8.05;;;0.98;;
22843;SDS011;11588;51.178;4.852;2024-01-15T01:48:50;8.07;;;0.90;;
22843;SDS011;11588;51.178;4.852;2024-01-15T01:51:16;7.03;;;0.80;;
22843;SDS011;11588;51.178;4.852;2024-01-15T01:53:43;5.28;;;0.90;;
22843;SDS011;11588;51.178;4.852;2024-01-15T01:56:10;8.13;;;0.90;;
22843;SDS011;11588;51.178;4.852;2024-01-15T01:58:40;6.43;;;0.80;;
22843;SDS011;11588;51.178;4.852;2024-01-15T02:01:05;6.82;;;0.95;;
22843;SDS011;11588;51.178;4.852;2024-01-15T02:03:32;6.60;;;0.80;;
22843;SDS011;11588;51.178;4.852;2024-01-15T02:05:59;7.22;;;0.88;;
22843;SDS011;11588;51.178;4.852;2024-01-15T02:08:26;10.32;;;0.95;;
22843;SDS011;11588;51.178;4.852;2024-01-15T02:10:52;5.68;;;1.13;;
22843;SDS011;11588;51.178;4.852;2024-01-15T02:13:19;4.43;;;0.80;;
22843;SDS011;11588;51.178;4.852;2024-01-15T02:15:46;10.68;;;1.35;;
22843;SDS011;11588;51.178;4.852;2024-01-15T02:18:12;6.95;;;1.10;;
22843;SDS011;11588;51.178;4.852;2024-01-15T02:20:39;3.40;;;1.05;;
22843;SDS011;11588;51.178;4.852;2024-01-15T02:25:43;4.65;;;0.90;;
22843;SDS011;11588;51.178;4.852;2024-01-15T02:28:11;9.02;;;1.20;;
22843;SDS011;11588;51.178;4.852;2024-01-15T02:30:38;7.63;;;1.00;;
22843;SDS011;11588;51.178;4.852;2024-01-15T02:33:06;9.52;;;1.00;;
22843;SDS011;11588;51.178;4.852;2024-01-15T02:35:32;6.82;;;0.80;;
22843;SDS011;11588;51.178;4.852;2024-01-15T02:37:59;9.07;;;0.95;;
22843;SDS011;11588;51.178;4.852;2024-01-15T02:40:26;6.40;;;0.80;;
22843;SDS011;11588;51.178;4.852;2024-01-15T02:42:52;7.55;;;0.70;;
22843;SDS011;11588;51.178;4.852;2024-01-15T02:45:19;6.38;;;0.98;;
22843;SDS011;11588;51.178;4.852;2024-01-15T02:47:45;5.25;;;0.90;;
22843;SDS011;11588;51.178;4.852;2024-01-15T02:50:12;4.07;;;1.17;;
22843;SDS011;11588;51.178;4.852;2024-01-15T02:52:38;12.23;;;1.20;;
22843;SDS011;11588;51.178;4.852;2024-01-15T02:55:05;5.97;;;0.80;;
22843;SDS011;11588;51.178;4.852;2024-01-15T02:57:31;6.70;;;1.30;;
22843;SDS011;11588;51.178;4.852;2024-01-15T02:59:57;9.88;;;0.90;;
22843;SDS011;11588;51.178;4.852;2024-01-15T03:02:23;8.38;;;0.80;;
22843;SDS011;11588;51.178;4.852;2024-01-15T03:04:52;4.63;;;0.65;;
22843;SDS011;11588;51.178;4.852;2024-01-15T03:07:17;4.88;;;0.70;;
22843;SDS011;11588;51.178;4.852;2024-01-15T03:09:44;7.50;;;0.88;;
22843;SDS011;11588;51.178;4.852;2024-01-15T03:12:10;7.43;;;0.80;;
22843;SDS011;11588;51.178;4.852;2024-01-15T03:14:39;4.38;;;0.75;;
22843;SDS011;11588;51.178;4.852;2024-01-15T03:17:04;7.65;;;1.00;;
22843;SDS011;11588;51.178;4.852;2024-01-15T03:19:30;6.88;;;0.80;;
22843;SDS011;11588;51.178;4.852;2024-01-15T03:21:56;4.65;;;1.30;;
22843;SDS011;11588;51.178;4.852;2024-01-15T03:24:23;9.50;;;1.10;;
22843;SDS011;11588;51.178;4.852;2024-01-15T03:26:49;6.45;;;1.00;;
22843;SDS011;11588;51.178;4.852;2024-01-15T03:29:15;7.38;;;1.00;;
22843;SDS011;11588;51.178;4.852;2024-01-15T03:31:42;10.07;;;1.40;;
22843;SDS011;11588;51.178;4.852;2024-01-15T03:34:08;7.07;;;1.27;;
22843;SDS011;11588;51.178;4.852;2024-01-15T03:36:35;6.20;;;1.55;;
22843;SDS011;11588;51.178;4.852;2024-01-15T03:39:01;8.25;;;1.20;;
22843;SDS011;11588;51.178;4.852;2024-01-15T03:41:28;5.45;;;1.27;;
22843;SDS011;11588;51.178;4.852;2024-01-15T03:43:54;10.93;;;1.75;;
22843;SDS011;11588;51.178;4.852;2024-01-15T03:46:20;5.57;;;1.77;;
22843;SDS011;11588;51.178;4.852;2024-01-15T03:48:47;8.23;;;1.23;;
22843;SDS011;11588;51.178;4.852;2024-01-15T03:51:15;6.75;;;1.35;;
22843;SDS011;11588;51.178;4.852;2024-01-15T03:53:41;11.82;;;1.35;;
22843;SDS011;11588;51.178;4.852;2024-01-15T03:56:07;8.73;;;1.23;;
22843;SDS011;11588;51.178;4.852;2024-01-15T03:58:33;10.25;;;1.25;;
22843;SDS011;11588;51.178;4.852;2024-01-15T04:01:00;5.55;;;1.08;;
22843;SDS011;11588;51.178;4.852;2024-01-15T04:03:26;6.65;;;1.23;;
22843;SDS011;11588;51.178;4.852;2024-01-15T04:05:52;10.68;;;1.48;;
22843;SDS011;11588;51.178;4.852;2024-01-15T04:08:19;6.80;;;1.50;;
22843;SDS011;11588;51.178;4.852;2024-01-15T04:10:45;12.05;;;1.50;;
22843;SDS011;11588;51.178;4.852;2024-01-15T04:13:11;14.95;;;1.73;;
22843;SDS011;11588;51.178;4.852;2024-01-15T04:15:38;6.03;;;1.85;;
22843;SDS011;11588;51.178;4.852;2024-01-15T04:18:04;9.80;;;2.20;;
22843;SDS011;11588;51.178;4.852;2024-01-15T04:20:31;9.38;;;3.13;;
22843;SDS011;11588;51.178;4.852;2024-01-15T04:22:57;10.00;;;2.90;;
22843;SDS011;11588;51.178;4.852;2024-01-15T04:25:23;11.95;;;2.92;;
22843;SDS011;11588;51.178;4.852;2024-01-15T04:27:50;9.10;;;3.17;;
22843;SDS011;11588;51.178;4.852;2024-01-15T04:30:16;9.02;;;3.30;;
22843;SDS011;11588;51.178;4.852;2024-01-15T04:32:42;9.30;;;3.40;;
22843;SDS011;11588;51.178;4.852;2024-01-15T04:35:09;8.82;;;3.33;;
22843;SDS011;11588;51.178;4.852;2024-01-15T04:37:35;9.18;;;3.67;;
22843;SDS011;11588;51.178;4.852;2024-01-15T04:40:02;10.32;;;4.38;;
22843;SDS011;11588;51.178;4.852;2024-01-15T04:42:30;10.73;;;4.97;;
22843;SDS011;11588;51.178;4.852;2024-01-15T04:44:56;14.68;;;5.53;;
22843;SDS011;11588;51.178;4.852;2024-01-15T04:47:22;12.60;;;4.75;;
22843;SDS011;11588;51.178;4.852;2024-01-15T04:49:49;11.90;;;5.03;;
22843;SDS011;11588;51.178;4.852;2024-01-15T04:52:15;8.85;;;5.65;;
22843;SDS011;11588;51.178;4.852;2024-01-15T04:54:41;11.15;;;4.95;;
22843;SDS011;11588;51.178;4.852;2024-01-15T04:57:07;9.73;;;4.55;;
22843;SDS011;11588;51.178;4.852;2024-01-15T04:59:33;11.45;;;4.80;;
22843;SDS011;11588;51.178;4.852;2024-01-15T05:02:00;14.25;;;4.70;;
22843;SDS011;11588;51.178;4.852;2024-01-15T05:04:26;8.02;;;4.10;;
22843;SDS011;11588;51.178;4.852;2024-01-15T05:06:53;13.02;;;4.63;;
22843;SDS011;11588;51.178;4.852;2024-01-15T05:09:19;12.52;;;4.68;;
22843;SDS011;11588;51.178;4.852;2024-01-15T05:11:46;10.82;;;4.68;;
22843;SDS011;11588;51.178;4.852;2024-01-15T05:14:12;9.57;;;4.55;;
22843;SDS011;11588;51.178;4.852;2024-01-15T05:16:39;15.63;;;4.97;;
22843;SDS011;11588;51.178;4.852;2024-01-15T05:19:07;14.23;;;4.78;;
22843;SDS011;11588;51.178;4.852;2024-01-15T05:21:34;15.25;;;4.47;;
22843;SDS011;11588;51.178;4.852;2024-01-15T05:24:00;12.10;;;4.45;;
22843;SDS011;11588;51.178;4.852;2024-01-15T05:26:26;13.65;;;5.25;;
22843;SDS011;11588;51.178;4.852;2024-01-15T05:28:52;11.02;;;4.50;;
22843;SDS011;11588;51.178;4.852;2024-01-15T05:31:19;8.07;;;4.50;;
22843;SDS011;11588;51.178;4.852;2024-01-15T05:33:45;11.63;;;4.78;;
22843;SDS011;11588;51.178;4.852;2024-01-15T05:36:12;17.67;;;5.20;;
22843;SDS011;11588;51.178;4.852;2024-01-15T05:38:38;7.90;;;4.03;;
22843;SDS011;11588;51.178;4.852;2024-01-15T05:41:04;15.05;;;4.82;;
22843;SDS011;11588;51.178;4.852;2024-01-15T05:43:31;12.45;;;4.68;;
22843;SDS011;11588;51.178;4.852;2024-01-15T05:45:58;15.35;;;4.47;;
22843;SDS011;11588;51.178;4.852;2024-01-15T05:48:24;11.85;;;4.35;;
22843;SDS011;11588;51.178;4.852;2024-01-15T05:50:50;13.10;;;4.30;;
22843;SDS011;11588;51.178;4.852;2024-01-15T05:53:16;14.05;;;4.53;;
22843;SDS011;11588;51.178;4.852;2024-01-15T05:55:42;9.10;;;3.92;;
22843;SDS011;11588;51.178;4.852;2024-01-15T05:58:09;12.90;;;3.97;;
22843;SDS011;11588;51.178;4.852;2024-01-15T06:00:35;12.40;;;4.18;;
22843;SDS011;11588;51.178;4.852;2024-01-15T06:03:02;13.05;;;4.75;;
22843;SDS011;11588;51.178;4.852;2024-01-15T06:05:29;10.13;;;4.78;;
22843;SDS011;11588;51.178;4.852;2024-01-15T06:07:56;12.77;;;4.47;;
22843;SDS011;11588;51.178;4.852;2024-01-15T06:10:22;11.60;;;4.05;;
22843;SDS011;11588;51.178;4.852;2024-01-15T06:12:49;7.75;;;3.50;;
22843;SDS011;11588;51.178;4.852;2024-01-15T06:15:15;11.30;;;3.70;;
22843;SDS011;11588;51.178;4.852;2024-01-15T06:17:41;8.73;;;3.50;;
22843;SDS011;11588;51.178;4.852;2024-01-15T06:20:08;13.23;;;3.20;;
22843;SDS011;11588;51.178;4.852;2024-01-15T06:22:34;12.57;;;3.40;;
22843;SDS011;11588;51.178;4.852;2024-01-15T06:25:02;10.65;;;3.05;;
22843;SDS011;11588;51.178;4.852;2024-01-15T06:27:29;7.18;;;2.75;;
22843;SDS011;11588;51.178;4.852;2024-01-15T06:29:55;13.65;;;3.25;;
22843;SDS011;11588;51.178;4.852;2024-01-15T06:32:22;10.52;;;2.47;;
22843;SDS011;11588;51.178;4.852;2024-01-15T06:34:48;13.77;;;2.97;;
22843;SDS011;11588;51.178;4.852;2024-01-15T06:37:15;11.95;;;3.05;;
22843;SDS011;11588;51.178;4.852;2024-01-15T06:39:41;14.95;;;3.08;;
22843;SDS011;11588;51.178;4.852;2024-01-15T06:42:08;11.07;;;3.17;;
22843;SDS011;11588;51.178;4.852;2024-01-15T06:44:34;10.35;;;2.53;;
22843;SDS011;11588;51.178;4.852;2024-01-15T06:47:01;13.05;;;2.70;;
22843;SDS011;11588;51.178;4.852;2024-01-15T06:49:29;10.88;;;2.60;;
22843;SDS011;11588;51.178;4.852;2024-01-15T06:51:56;10.57;;;2.47;;
22843;SDS011;11588;51.178;4.852;2024-01-15T06:54:22;10.38;;;2.47;;
22843;SDS011;11588;51.178;4.852;2024-01-15T06:56:49;11.63;;;3.22;;
22843;SDS011;11588;51.178;4.852;2024-01-15T06:59:16;9.55;;;2.38;;
22843;SDS011;11588;51.178;4.852;2024-01-15T07:01:43;9.18;;;2.30;;
22843;SDS011;11588;51.178;4.852;2024-01-15T07:04:09;12.95;;;2.70;;
22843;SDS011;11588;51.178;4.852;2024-01-15T07:06:36;11.85;;;2.33;;
22843;SDS011;11588;51.178;4.852;2024-01-15T07:09:02;17.60;;;2.78;;
22843;SDS011;11588;51.178;4.852;2024-01-15T07:11:29;8.35;;;2.72;;
22843;SDS011;11588;51.178;4.852;2024-01-15T07:13:56;10.20;;;2.35;;
22843;SDS011;11588;51.178;4.852;2024-01-15T07:16:22;10.40;;;2.40;;
22843;SDS011;11588;51.178;4.852;2024-01-15T07:18:49;8.75;;;2.28;;
22843;SDS011;11588;51.178;4.852;2024-01-15T07:21:15;13.82;;;2.42;;
22843;SDS011;11588;51.178;4.852;2024-01-15T07:23:41;9.20;;;2.20;;
22843;SDS011;11588;51.178;4.852;2024-01-15T07:26:08;8.73;;;2.38;;
22843;SDS011;11588;51.178;4.852;2024-01-15T07:28:34;7.25;;;2.10;;
22843;SDS011;11588;51.178;4.852;2024-01-15T07:31:02;8.88;;;2.40;;
22843;SDS011;11588;51.178;4.852;2024-01-15T07:33:30;6.72;;;2.30;;
22843;SDS011;11588;51.178;4.852;2024-01-15T07:35:56;13.82;;;2.88;;
22843;SDS011;11588;51.178;4.852;2024-01-15T07:38:22;8.27;;;2.70;;
22843;SDS011;11588;51.178;4.852;2024-01-15T07:40:49;15.18;;;3.33;;
22843;SDS011;11588;51.178;4.852;2024-01-15T07:43:15;8.60;;;2.63;;
22843;SDS011;11588;51.178;4.852;2024-01-15T07:45:41;10.77;;;2.50;;
22843;SDS011;11588;51.178;4.852;2024-01-15T07:48:07;11.98;;;2.97;;
22843;SDS011;11588;51.178;4.852;2024-01-15T07:50:34;13.20;;;3.00;;
22843;SDS011;11588;51.178;4.852;2024-01-15T07:53:00;8.50;;;3.25;;
22843;SDS011;11588;51.178;4.852;2024-01-15T07:55:26;11.13;;;3.00;;
22843;SDS011;11588;51.178;4.852;2024-01-15T07:57:52;10.55;;;2.58;;
22843;SDS011;11588;51.178;4.852;2024-01-15T08:00:20;11.60;;;2.97;;
22843;SDS011;11588;51.178;4.852;2024-01-15T08:02:47;14.52;;;3.10;;
22843;SDS011;11588;51.178;4.852;2024-01-15T08:05:13;8.70;;;2.35;;
22843;SDS011;11588;51.178;4.852;2024-01-15T08:07:40;8.40;;;2.15;;
22843;SDS011;11588;51.178;4.852;2024-01-15T08:10:07;10.60;;;2.50;;
22843;SDS011;11588;51.178;4.852;2024-01-15T08:12:33;13.82;;;2.20;;
22843;SDS011;11588;51.178;4.852;2024-01-15T08:15:00;10.98;;;1.83;;
22843;SDS011;11588;51.178;4.852;2024-01-15T08:17:27;9.57;;;1.63;;
22843;SDS011;11588;51.178;4.852;2024-01-15T08:19:54;9.45;;;1.60;;
22843;SDS011;11588;51.178;4.852;2024-01-15T08:22:21;13.90;;;1.55;;
22843;SDS011;11588;51.178;4.852;2024-01-15T08:24:47;9.18;;;2.10;;
22843;SDS011;11588;51.178;4.852;2024-01-15T08:27:14;7.68;;;2.38;;
22843;SDS011;11588;51.178;4.852;2024-01-15T08:29:40;10.10;;;1.70;;
22843;SDS011;11588;51.178;4.852;2024-01-15T08:32:07;8.48;;;1.63;;
22843;SDS011;11588;51.178;4.852;2024-01-15T08:34:34;9.27;;;1.90;;
22843;SDS011;11588;51.178;4.852;2024-01-15T08:37:03;11.48;;;2.22;;
22843;SDS011;11588;51.178;4.852;2024-01-15T08:39:31;9.90;;;1.73;;
22843;SDS011;11588;51.178;4.852;2024-01-15T08:41:57;10.68;;;2.05;;
22843;SDS011;11588;51.178;4.852;2024-01-15T08:44:24;14.52;;;1.90;;
22843;SDS011;11588;51.178;4.852;2024-01-15T08:46:51;8.95;;;1.75;;
22843;SDS011;11588;51.178;4.852;2024-01-15T08:49:17;11.93;;;2.28;;
22843;SDS011;11588;51.178;4.852;2024-01-15T08:51:44;12.80;;;2.58;;
22843;SDS011;11588;51.178;4.852;2024-01-15T08:54:11;11.70;;;2.22;;
22843;SDS011;11588;51.178;4.852;2024-01-15T08:56:37;10.77;;;1.92;;
22843;SDS011;11588;51.178;4.852;2024-01-15T08:59:04;11.63;;;1.90;;
22843;SDS011;11588;51.178;4.852;2024-01-15T09:01:31;17.63;;;2.30;;
22843;SDS011;11588;51.178;4.852;2024-01-15T09:03:57;12.15;;;1.63;;
22843;SDS011;11588;51.178;4.852;2024-01-15T09:06:24;9.43;;;1.75;;
22843;SDS011;11588;51.178;4.852;2024-01-15T09:08:51;17.35;;;2.00;;
22843;SDS011;11588;51.178;4.852;2024-01-15T09:11:17;9.57;;;1.73;;
22843;SDS011;11588;51.178;4.852;2024-01-15T09:13:44;11.25;;;1.80;;
22843;SDS011;11588;51.178;4.852;2024-01-15T09:16:10;10.38;;;2.00;;
22843;SDS011;11588;51.178;4.852;2024-01-15T09:18:37;11.80;;;1.90;;
22843;SDS011;11588;51.178;4.852;2024-01-15T09:21:03;10.82;;;2.17;;
22843;SDS011;11588;51.178;4.852;2024-01-15T09:23:31;9.00;;;1.60;;
22843;SDS011;11588;51.178;4.852;2024-01-15T09:25:57;13.43;;;2.03;;
22843;SDS011;11588;51.178;4.852;2024-01-15T09:28:24;11.05;;;1.80;;
22843;SDS011;11588;51.178;4.852;2024-01-15T09:30:51;10.93;;;2.17;;
22843;SDS011;11588;51.178;4.852;2024-01-15T09:33:17;14.80;;;2.13;;
22843;SDS011;11588;51.178;4.852;2024-01-15T09:35:44;12.07;;;1.83;;
22843;SDS011;11588;51.178;4.852;2024-01-15T09:38:10;11.38;;;2.45;;
22843;SDS011;11588;51.178;4.852;2024-01-15T09:40:37;13.18;;;2.28;;
22843;SDS011;11588;51.178;4.852;2024-01-15T09:43:04;8.85;;;2.00;;
22843;SDS011;11588;51.178;4.852;2024-01-15T09:45:31;10.20;;;1.90;;
22843;SDS011;11588;51.178;4.852;2024-01-15T09:47:57;11.98;;;2.22;;
22843;SDS011;11588;51.178;4.852;2024-01-15T09:50:24;7.75;;;1.75;;
22843;SDS011;11588;51.178;4.852;2024-01-15T09:52:51;9.18;;;1.38;;
22843;SDS011;11588;51.178;4.852;2024-01-15T09:55:17;5.57;;;1.50;;
22843;SDS011;11588;51.178;4.852;2024-01-15T09:57:44;9.50;;;1.33;;
22843;SDS011;11588;51.178;4.852;2024-01-15T10:00:12;6.85;;;1.63;;
22843;SDS011;11588;51.178;4.852;2024-01-15T10:02:39;9.27;;;1.60;;
22843;SDS011;11588;51.178;4.852;2024-01-15T10:05:06;4.40;;;1.27;;
22843;SDS011;11588;51.178;4.852;2024-01-15T10:07:34;8.30;;;1.48;;
22843;SDS011;11588;51.178;4.852;2024-01-15T10:10:01;7.95;;;1.63;;
22843;SDS011;11588;51.178;4.852;2024-01-15T10:12:29;12.13;;;1.52;;
22843;SDS011;11588;51.178;4.852;2024-01-15T10:14:56;9.90;;;1.25;;
22843;SDS011;11588;51.178;4.852;2024-01-15T10:17:23;11.48;;;1.25;;
22843;SDS011;11588;51.178;4.852;2024-01-15T10:19:50;7.50;;;1.02;;
22843;SDS011;11588;51.178;4.852;2024-01-15T10:22:17;10.20;;;1.65;;
22843;SDS011;11588;51.178;4.852;2024-01-15T10:24:44;9.75;;;1.35;;
22843;SDS011;11588;51.178;4.852;2024-01-15T10:27:11;10.18;;;1.48;;
22843;SDS011;11588;51.178;4.852;2024-01-15T10:29:38;9.57;;;1.65;;
22843;SDS011;11588;51.178;4.852;2024-01-15T10:32:06;10.90;;;1.70;;
22843;SDS011;11588;51.178;4.852;2024-01-15T10:34:38;8.40;;;1.30;;
22843;SDS011;11588;51.178;4.852;2024-01-15T10:37:09;11.10;;;1.48;;
22843;SDS011;11588;51.178;4.852;2024-01-15T10:39:36;10.18;;;1.50;;
22843;SDS011;11588;51.178;4.852;2024-01-15T10:42:03;13.88;;;1.70;;
22843;SDS011;11588;51.178;4.852;2024-01-15T10:44:30;8.20;;;1.17;;
22843;SDS011;11588;51.178;4.852;2024-01-15T10:46:56;8.55;;;1.40;;
22843;SDS011;11588;51.178;4.852;2024-01-15T10:49:23;9.10;;;1.67;;
22843;SDS011;11588;51.178;4.852;2024-01-15T10:51:52;7.43;;;1.58;;
22843;SDS011;11588;51.178;4.852;2024-01-15T10:54:20;4.78;;;0.93;;
22843;SDS011;11588;51.178;4.852;2024-01-15T10:56:47;11.48;;;1.55;;
22843;SDS011;11588;51.178;4.852;2024-01-15T10:59:14;8.30;;;2.20;;
22843;SDS011;11588;51.178;4.852;2024-01-15T11:01:41;8.18;;;1.10;;
22843;SDS011;11588;51.178;4.852;2024-01-15T11:04:08;7.70;;;1.70;;
22843;SDS011;11588;51.178;4.852;2024-01-15T11:09:11;8.60;;;1.20;;
22843;SDS011;11588;51.178;4.852;2024-01-15T11:11:43;9.68;;;1.50;;
22843;SDS011;11588;51.178;4.852;2024-01-15T11:14:10;8.43;;;1.23;;
22843;SDS011;11588;51.178;4.852;2024-01-15T11:16:53;11.85;;;1.40;;
22843;SDS011;11588;51.178;4.852;2024-01-15T11:19:20;6.85;;;1.30;;
22843;SDS011;11588;51.178;4.852;2024-01-15T11:21:47;7.63;;;1.52;;
22843;SDS011;11588;51.178;4.852;2024-01-15T11:26:48;9.40;;;1.15;;
22843;SDS011;11588;51.178;4.852;2024-01-15T11:31:58;7.28;;;1.27;;
22843;SDS011;11588;51.178;4.852;2024-01-15T11:37:14;9.70;;;1.40;;
22843;SDS011;11588;51.178;4.852;2024-01-15T11:39:41;7.85;;;1.52;;
22843;SDS011;11588;51.178;4.852;2024-01-15T11:42:10;10.38;;;1.63;;
22843;SDS011;11588;51.178;4.852;2024-01-15T11:44:37;7.85;;;1.70;;
22843;SDS011;11588;51.178;4.852;2024-01-15T11:47:04;4.88;;;1.08;;
22843;SDS011;11588;51.178;4.852;2024-01-15T11:51:58;5.13;;;1.15;;
22843;SDS011;11588;51.178;4.852;2024-01-15T11:54:27;10.30;;;1.52;;
22843;SDS011;11588;51.178;4.852;2024-01-15T11:56:56;8.38;;;1.75;;
22843;SDS011;11588;51.178;4.852;2024-01-15T11:59:23;11.13;;;1.77;;
22843;SDS011;11588;51.178;4.852;2024-01-15T12:01:50;9.98;;;1.50;;
22843;SDS011;11588;51.178;4.852;2024-01-15T12:04:20;12.52;;;1.80;;
22843;SDS011;11588;51.178;4.852;2024-01-15T12:06:47;4.53;;;1.20;;
22843;SDS011;11588;51.178;4.852;2024-01-15T12:09:14;8.48;;;1.42;;
22843;SDS011;11588;51.178;4.852;2024-01-15T12:11:42;8.07;;;1.20;;
22843;SDS011;11588;51.178;4.852;2024-01-15T12:14:16;5.25;;;1.00;;
22843;SDS011;11588;51.178;4.852;2024-01-15T12:16:43;6.30;;;2.00;;
22843;SDS011;11588;51.178;4.852;2024-01-15T12:19:09;3.85;;;0.82;;
22843;SDS011;11588;51.178;4.852;2024-01-15T12:21:38;2.60;;;0.70;;
22843;SDS011;11588;51.178;4.852;2024-01-15T12:24:07;3.10;;;0.88;;
22843;SDS011;11588;51.178;4.852;2024-01-15T12:26:33;4.85;;;0.93;;
22843;SDS011;11588;51.178;4.852;2024-01-15T12:29:02;4.63;;;0.60;;
22843;SDS011;11588;51.178;4.852;2024-01-15T12:31:29;2.47;;;0.65;;
22843;SDS011;11588;51.178;4.852;2024-01-15T12:33:56;2.95;;;0.60;;
22843;SDS011;11588;51.178;4.852;2024-01-15T12:36:23;2.30;;;0.73;;
22843;SDS011;11588;51.178;4.852;2024-01-15T12:38:49;5.50;;;1.10;;
22843;SDS011;11588;51.178;4.852;2024-01-15T12:41:16;4.30;;;1.27;;
22843;SDS011;11588;51.178;4.852;2024-01-15T12:43:43;6.47;;;1.23;;
22843;SDS011;11588;51.178;4.852;2024-01-15T12:46:09;6.35;;;1.23;;
22843;SDS011;11588;51.178;4.852;2024-01-15T12:48:36;5.30;;;1.60;;
22843;SDS011;11588;51.178;4.852;2024-01-15T12:51:05;4.03;;;1.40;;
22843;SDS011;11588;51.178;4.852;2024-01-15T12:53:32;3.10;;;0.68;;
22843;SDS011;11588;51.178;4.852;2024-01-15T12:55:58;3.60;;;0.77;;
22843;SDS011;11588;51.178;4.852;2024-01-15T12:58:25;2.60;;;1.17;;
22843;SDS011;11588;51.178;4.852;2024-01-15T13:00:52;2.08;;;1.50;;
22843;SDS011;11588;51.178;4.852;2024-01-15T13:03:18;3.13;;;1.40;;
22843;SDS011;11588;51.178;4.852;2024-01-15T13:05:45;2.00;;;0.95;;
22843;SDS011;11588;51.178;4.852;2024-01-15T13:08:12;2.40;;;1.60;;
22843;SDS011;11588;51.178;4.852;2024-01-15T13:10:38;2.72;;;1.42;;
22843;SDS011;11588;51.178;4.852;2024-01-15T13:13:05;3.50;;;1.45;;
22843;SDS011;11588;51.178;4.852;2024-01-15T13:15:32;3.60;;;1.42;;
22843;SDS011;11588;51.178;4.852;2024-01-15T13:17:58;3.72;;;1.52;;
22843;SDS011;11588;51.178;4.852;2024-01-15T13:20:25;4.43;;;1.23;;
22843;SDS011;11588;51.178;4.852;2024-01-15T13:22:50;5.40;;;1.42;;
22843;SDS011;11588;51.178;4.852;2024-01-15T13:25:17;5.10;;;2.05;;
22843;SDS011;11588;51.178;4.852;2024-01-15T13:27:44;5.07;;;1.85;;
22843;SDS011;11588;51.178;4.852;2024-01-15T13:30:10;3.95;;;1.73;;
22843;SDS011;11588;51.178;4.852;2024-01-15T13:32:38;4.68;;;1.90;;
22843;SDS011;11588;51.178;4.852;2024-01-15T13:35:05;6.95;;;2.25;;
22843;SDS011;11588;51.178;4.852;2024-01-15T13:37:36;3.33;;;1.73;;
22843;SDS011;11588;51.178;4.852;2024-01-15T13:40:06;8.05;;;1.90;;
22843;SDS011;11588;51.178;4.852;2024-01-15T13:42:34;4.15;;;1.55;;
22843;SDS011;11588;51.178;4.852;2024-01-15T13:45:01;7.47;;;1.63;;
22843;SDS011;11588;51.178;4.852;2024-01-15T13:47:27;3.33;;;1.13;;
22843;SDS011;11588;51.178;4.852;2024-01-15T13:49:55;4.72;;;0.90;;
22843;SDS011;11588;51.178;4.852;2024-01-15T13:52:21;4.40;;;0.90;;
22843;SDS011;11588;51.178;4.852;2024-01-15T13:54:48;5.88;;;0.82;;
22843;SDS011;11588;51.178;4.852;2024-01-15T13:57:15;5.82;;;0.90;;
22843;SDS011;11588;51.178;4.852;2024-01-15T13:59:42;4.07;;;0.80;;
22843;SDS011;11588;51.178;4.852;2024-01-15T14:02:08;2.90;;;0.90;;
22843;SDS011;11588;51.178;4.852;2024-01-15T14:04:36;4.97;;;0.77;;
22843;SDS011;11588;51.178;4.852;2024-01-15T14:07:02;6.65;;;1.20;;
22843;SDS011;11588;51.178;4.852;2024-01-15T14:09:30;5.75;;;1.02;;
22843;SDS011;11588;51.178;4.852;2024-01-15T14:11:58;6.95;;;1.80;;
22843;SDS011;11588;51.178;4.852;2024-01-15T14:14:25;5.30;;;1.50;;
22843;SDS011;11588;51.178;4.852;2024-01-15T14:16:51;6.65;;;3.05;;
22843;SDS011;11588;51.178;4.852;2024-01-15T14:19:18;4.88;;;1.85;;
22843;SDS011;11588;51.178;4.852;2024-01-15T14:21:45;5.05;;;1.90;;
22843;SDS011;11588;51.178;4.852;2024-01-15T14:24:11;3.58;;;1.25;;
22843;SDS011;11588;51.178;4.852;2024-01-15T14:26:38;8.98;;;1.40;;
22843;SDS011;11588;51.178;4.852;2024-01-15T14:29:05;7.75;;;2.00;;
22843;SDS011;11588;51.178;4.852;2024-01-15T14:31:32;5.60;;;1.27;;
22843;SDS011;11588;51.178;4.852;2024-01-15T14:34:00;7.55;;;1.60;;
22843;SDS011;11588;51.178;4.852;2024-01-15T14:36:29;6.68;;;1.92;;
22843;SDS011;11588;51.178;4.852;2024-01-15T14:38:56;9.35;;;1.60;;
22843;SDS011;11588;51.178;4.852;2024-01-15T14:41:23;7.63;;;1.92;;
22843;SDS011;11588;51.178;4.852;2024-01-15T14:43:49;9.73;;;2.00;;
22843;SDS011;11588;51.178;4.852;2024-01-15T14:46:16;13.57;;;2.28;;
22843;SDS011;11588;51.178;4.852;2024-01-15T14:48:43;7.07;;;2.10;;
22843;SDS011;11588;51.178;4.852;2024-01-15T14:51:10;8.23;;;2.25;;
22843;SDS011;11588;51.178;4.852;2024-01-15T14:53:37;11.55;;;2.22;;
22843;SDS011;11588;51.178;4.852;2024-01-15T14:56:04;8.45;;;2.00;;